createdAt,value
2023-10-29T00:00:04.680Z,100.00
2023-10-29T00:05:16.521Z,100.00
2023-10-29T00:10:20.932Z,100.00
2023-10-29T00:15:25.201Z,100.00
2023-10-29T00:20:30.903Z,100.00
2023-10-29T00:25:35.127Z,100.00
2023-10-29T00:30:39.290Z,100.00
2023-10-29T00:35:44.925Z,100.00
2023-10-29T00:40:49.161Z,100.00
2023-10-29T00:45:55.761Z,100.00
2023-10-29T00:51:01.630Z,100.00
2023-10-29T00:56:10.020Z,100.00
2023-10-29T01:01:14.367Z,100.00
2023-10-29T01:06:20.817Z,100.00
2023-10-29T01:11:25.879Z,100.00
2023-10-29T01:16:30.483Z,100.00
2023-10-29T01:21:36.229Z,100.00
2023-10-29T01:26:40.480Z,100.00
2023-10-29T01:31:44.881Z,100.00
2023-10-29T01:36:50.558Z,100.00
2023-10-29T01:41:57.354Z,100.00
2023-10-29T01:47:01.589Z,100.00
2023-10-29T01:52:07.918Z,100.00
2023-10-29T01:57:12.152Z,100.00
2023-10-29T02:02:16.331Z,100.00
2023-10-29T02:07:21.969Z,100.00
2023-10-29T02:12:26.250Z,100.00
2023-10-29T02:17:31.736Z,100.00
2023-10-29T02:22:37.368Z,100.00
2023-10-29T02:27:42.174Z,100.00
2023-10-29T02:32:46.436Z,100.00
2023-10-29T02:37:51.992Z,100.00
2023-10-29T02:42:56.937Z,100.00
2023-10-29T02:48:01.174Z,100.00
2023-10-29T02:53:06.920Z,100.00
2023-10-29T02:58:11.138Z,100.00
2023-10-29T03:03:15.451Z,100.00
2023-10-29T03:08:21.869Z,100.00
2023-10-29T03:13:26.159Z,100.00
2023-10-29T03:18:30.864Z,100.00
2023-10-29T03:23:36.586Z,100.00
2023-10-29T03:28:41.350Z,100.00
2023-10-29T03:33:45.549Z,100.00
2023-10-29T03:38:51.259Z,100.00
2023-10-29T03:43:56.061Z,100.00
2023-10-29T03:49:01.647Z,100.00
2023-10-29T03:54:08.599Z,100.00
2023-10-29T03:59:13.238Z,100.00
2023-10-29T04:04:17.840Z,100.00
2023-10-29T04:09:24.408Z,100.00
2023-10-29T04:14:29.015Z,100.00
2023-10-29T04:19:33.268Z,100.00
2023-10-29T04:24:39.358Z,100.00
2023-10-29T04:29:43.734Z,100.00
2023-10-29T04:34:48.103Z,100.00
2023-10-29T04:39:53.806Z,100.00
2023-10-29T04:44:58.090Z,100.00
2023-10-29T04:50:03.066Z,100.00
2023-10-29T04:55:10.329Z,100.00
2023-10-29T05:00:15.030Z,100.00
2023-10-29T05:05:19.375Z,100.00
2023-10-29T05:10:26.946Z,100.00
2023-10-29T05:15:31.619Z,100.00
2023-10-29T05:20:35.954Z,100.00
2023-10-29T05:25:42.876Z,100.00
2023-10-29T05:30:47.140Z,100.00
2023-10-29T05:35:51.459Z,100.00
2023-10-29T05:40:57.077Z,100.00
2023-10-29T05:46:01.361Z,100.00
2023-10-29T05:51:05.997Z,100.00
2023-10-29T05:56:11.721Z,100.00
2023-10-29T06:01:15.961Z,100.00
2023-10-29T06:06:20.996Z,100.00
2023-10-29T06:11:26.675Z,100.00
2023-10-29T06:16:31.058Z,100.00
2023-10-29T06:21:36.186Z,100.00
2023-10-29T06:26:41.891Z,100.00
2023-10-29T06:31:46.200Z,100.00
2023-10-29T06:36:50.454Z,100.00
2023-10-29T06:41:56.101Z,100.00
2023-10-29T06:47:00.362Z,100.00
2023-10-29T06:52:04.839Z,100.00
2023-10-29T06:57:11.082Z,100.00
2023-10-29T07:02:15.552Z,100.00
2023-10-29T07:07:20.408Z,100.00
2023-10-29T07:12:26.043Z,100.00
2023-10-29T07:17:30.509Z,100.00
2023-10-29T07:22:34.733Z,100.00
2023-10-29T07:27:40.748Z,100.00
2023-10-29T07:32:45.111Z,100.00
2023-10-29T07:37:49.398Z,100.00
2023-10-29T07:42:55.059Z,100.00
2023-10-29T07:47:59.989Z,100.00
2023-10-29T07:53:04.469Z,100.00
2023-10-29T07:58:10.179Z,100.00
2023-10-29T08:03:15.262Z,100.00
2023-10-29T08:08:22.202Z,100.00
2023-10-29T08:13:27.941Z,100.00
2023-10-29T08:18:34.794Z,100.00
2023-10-29T08:23:39.210Z,100.00
2023-10-29T08:28:44.848Z,100.00
2023-10-29T08:33:49.080Z,100.00
2023-10-29T08:38:53.337Z,100.00
2023-10-29T08:43:59.091Z,100.00
2023-10-29T08:49:03.306Z,100.00
2023-10-29T08:54:08.036Z,100.00
2023-10-29T08:59:13.729Z,100.00
2023-10-29T09:04:18.140Z,100.00
2023-10-29T09:09:22.581Z,100.00
2023-10-29T09:14:28.189Z,100.00
2023-10-29T09:19:32.774Z,100.00
2023-10-29T09:24:41.457Z,100.00
2023-10-29T09:29:47.903Z,100.00
2023-10-29T09:34:52.484Z,100.00
2023-10-29T09:39:56.742Z,92.62
2023-10-29T09:45:05.147Z,85.84
2023-10-29T09:50:11.704Z,82.94
2023-10-29T09:55:16.975Z,78.66
2023-10-29T10:00:23.002Z,80.13
2023-10-29T10:05:29.342Z,80.66
2023-10-29T10:10:41.703Z,80.55
2023-10-29T10:15:49.239Z,79.76
2023-10-29T10:21:00.291Z,78.50
2023-10-29T10:26:05.337Z,77.92
2023-10-29T10:31:16.347Z,78.17
2023-10-29T10:36:33.959Z,75.50
2023-10-29T10:41:44.733Z,73.46
2023-10-29T10:46:54.577Z,72.27
2023-10-29T10:52:00.429Z,71.31
2023-10-29T10:57:09.154Z,68.37
2023-10-29T11:02:16.671Z,67.82
2023-10-29T11:07:21.404Z,68.57
2023-10-29T11:12:25.732Z,69.93
2023-10-29T11:17:58.925Z,70.07
2023-10-29T11:23:09.303Z,69.38
2023-10-29T11:28:46.885Z,69.74
2023-10-29T11:34:45.815Z,68.36
2023-10-29T11:39:50.885Z,67.49
2023-10-29T11:45:37.278Z,65.00
2023-10-29T11:50:47.320Z,64.32
2023-10-29T11:55:58.868Z,63.71
2023-10-29T12:01:03.379Z,62.51
2023-10-29T12:06:09.226Z,61.50
2023-10-29T12:11:14.460Z,62.83
2023-10-29T12:16:22.915Z,63.44
2023-10-29T12:21:28.699Z,62.21
2023-10-29T12:26:33.091Z,61.62
2023-10-29T12:31:37.369Z,61.94
2023-10-29T12:36:52.713Z,62.50
2023-10-29T12:41:57.994Z,60.93
2023-10-29T12:47:02.328Z,61.55
2023-10-29T12:52:14.767Z,61.88
2023-10-29T12:57:19.552Z,62.42
2023-10-29T13:02:26.454Z,63.09
2023-10-29T13:07:38.558Z,63.64
2023-10-29T13:12:46.063Z,65.33
2023-10-29T13:17:51.012Z,65.75
2023-10-29T13:22:56.699Z,65.85
2023-10-29T13:28:01.342Z,67.01
2023-10-29T13:33:05.678Z,69.02
2023-10-29T13:38:11.648Z,69.49
2023-10-29T13:43:15.841Z,69.49
2023-10-29T13:48:20.127Z,69.02
2023-10-29T13:53:26.529Z,66.34
2023-10-29T13:58:30.782Z,64.85
2023-10-29T14:03:35.079Z,63.36
2023-10-29T14:08:40.853Z,65.95
2023-10-29T14:13:46.854Z,67.19
2023-10-29T14:18:51.352Z,69.67
2023-10-29T14:23:57.828Z,71.01
2023-10-29T14:29:02.254Z,72.02
2023-10-29T14:34:07.156Z,72.80
2023-10-29T14:39:13.253Z,74.64
2023-10-29T14:44:17.542Z,76.01
2023-10-29T14:49:22.429Z,76.75
2023-10-29T14:54:28.199Z,78.08
2023-10-29T14:59:35.997Z,80.95
2023-10-29T15:04:40.260Z,82.91
2023-10-29T15:09:45.992Z,84.76
2023-10-29T15:14:52.437Z,85.77
2023-10-29T15:19:59.038Z,86.70
2023-10-29T15:25:07.453Z,87.84
2023-10-29T15:30:12.379Z,88.98
2023-10-29T15:35:16.753Z,88.87
2023-10-29T15:40:23.011Z,89.61
2023-10-29T15:45:27.383Z,91.52
2023-10-29T15:50:31.712Z,92.22
2023-10-29T15:55:37.365Z,92.32
2023-10-29T16:00:41.776Z,92.35
2023-10-29T16:05:46.004Z,92.09
2023-10-29T16:10:51.699Z,90.86
2023-10-29T16:15:55.952Z,90.14
2023-10-29T16:21:00.332Z,90.81
2023-10-29T16:26:06.239Z,89.66
2023-10-29T16:31:10.514Z,89.93
2023-10-29T16:36:15.079Z,91.35
2023-10-29T16:41:21.043Z,91.39
2023-10-29T16:46:25.803Z,92.53
2023-10-29T16:51:31.504Z,94.92
2023-10-29T16:56:37.344Z,95.12
2023-10-29T17:01:41.609Z,94.66
2023-10-29T17:06:46.021Z,95.74
2023-10-29T17:11:51.653Z,95.58
2023-10-29T17:16:55.904Z,97.45
2023-10-29T17:22:00.251Z,99.68
2023-10-29T17:27:06.538Z,100.00
2023-10-29T17:32:11.473Z,100.00
2023-10-29T17:37:19.092Z,100.00
2023-10-29T17:42:25.431Z,100.00
2023-10-29T17:47:29.735Z,100.00
2023-10-29T17:52:34.700Z,100.00
2023-10-29T17:57:40.368Z,100.00
2023-10-29T18:02:44.599Z,100.00
2023-10-29T18:07:49.645Z,100.00
2023-10-29T18:12:55.269Z,100.00
2023-10-29T18:17:59.558Z,100.00
2023-10-29T18:23:05.666Z,100.00
2023-10-29T18:28:11.771Z,100.00
2023-10-29T18:33:16.883Z,100.00
2023-10-29T18:38:21.162Z,100.00
2023-10-29T18:43:27.991Z,100.00
2023-10-29T18:48:32.618Z,100.00
2023-10-29T18:53:37.037Z,100.00
2023-10-29T18:58:42.721Z,100.00
2023-10-29T19:03:47.032Z,100.00
2023-10-29T19:08:51.394Z,100.00
2023-10-29T19:13:57.120Z,100.00
2023-10-29T19:19:02.506Z,100.00
2023-10-29T19:24:07.549Z,100.00
2023-10-29T19:29:13.360Z,100.00
2023-10-29T19:34:17.581Z,100.00
2023-10-29T19:39:22.534Z,100.00
2023-10-29T19:44:28.908Z,100.00
2023-10-29T19:49:34.729Z,100.00
2023-10-29T19:54:40.456Z,100.00
2023-10-29T19:59:48.827Z,100.00
2023-10-29T20:04:54.825Z,100.00
2023-10-29T20:09:59.553Z,100.00
2023-10-29T20:15:05.736Z,100.00
2023-10-29T20:20:12.560Z,100.00
2023-10-29T20:25:17.013Z,100.00
2023-10-29T20:30:24.346Z,100.00
2023-10-29T20:35:28.696Z,100.00
2023-10-29T20:40:33.000Z,100.00
2023-10-29T20:45:39.066Z,100.00
2023-10-29T20:50:51.601Z,100.00
2023-10-29T20:55:55.894Z,100.00
2023-10-29T21:01:04.169Z,100.00
2023-10-29T21:06:08.694Z,100.00
2023-10-29T21:11:16.725Z,100.00
2023-10-29T21:16:23.927Z,100.00
2023-10-29T21:21:28.681Z,100.00
2023-10-29T21:26:32.947Z,100.00
2023-10-29T21:31:38.588Z,100.00
2023-10-29T21:36:42.816Z,100.00
2023-10-29T21:41:47.206Z,100.00
2023-10-29T21:46:53.273Z,100.00
2023-10-29T21:51:57.936Z,100.00
2023-10-29T21:57:06.343Z,100.00
2023-10-29T22:02:12.482Z,100.00
2023-10-29T22:07:17.107Z,100.00
2023-10-29T22:12:21.530Z,100.00
2023-10-29T22:17:27.839Z,100.00
2023-10-29T22:22:34.745Z,100.00
2023-10-29T22:27:39.005Z,100.00
2023-10-29T22:32:45.505Z,100.00
2023-10-29T22:37:49.814Z,100.00
2023-10-29T22:42:53.965Z,100.00
2023-10-29T22:48:00.056Z,100.00
2023-10-29T22:53:04.487Z,100.00
2023-10-29T22:58:08.923Z,100.00
2023-10-29T23:03:14.622Z,100.00
2023-10-29T23:08:19.392Z,100.00
2023-10-29T23:13:25.929Z,100.00
2023-10-29T23:18:31.960Z,100.00
2023-10-29T23:23:36.227Z,100.00
2023-10-29T23:28:40.541Z,100.00
2023-10-29T23:33:46.219Z,100.00
2023-10-29T23:38:50.604Z,100.00
2023-10-29T23:43:55.530Z,100.00
2023-10-29T23:49:01.221Z,100.00
2023-10-29T23:54:05.855Z,100.00
2023-10-29T23:59:10.202Z,100.00
